sensor_id;sensor_type;location;lat;lon;timestamp;P1;durP1;ratioP1;P2;durP2;ratioP2
20296;SDS011;10307;40.100;18.336;2023-02-07T00:01:21;6.07;;;2.65;;
20296;SDS011;10307;40.100;18.336;2023-02-07T00:03:48;7.03;;;2.92;;
20296;SDS011;10307;40.100;18.336;2023-02-07T00:06:19;6.47;;;2.53;;
20296;SDS011;10307;40.100;18.336;2023-02-07T00:08:52;6.55;;;2.80;;
20296;SDS011;10307;40.100;18.336;2023-02-07T00:11:19;6.63;;;2.67;;
20296;SDS011;10307;40.100;18.336;2023-02-07T00:13:49;7.10;;;2.53;;
20296;SDS011;10307;40.100;18.336;2023-02-07T00:16:19;10.88;;;2.60;;
20296;SDS011;10307;40.100;18.336;2023-02-07T00:18:46;6.47;;;2.42;;
20296;SDS011;10307;40.100;18.336;2023-02-07T00:21:14;9.05;;;2.90;;
20296;SDS011;10307;40.100;18.336;2023-02-07T00:23:42;4.88;;;2.53;;
20296;SDS011;10307;40.100;18.336;2023-02-07T00:26:09;5.65;;;2.45;;
20296;SDS011;10307;40.100;18.336;2023-02-07T00:28:37;5.18;;;2.40;;
20296;SDS011;10307;40.100;18.336;2023-02-07T00:31:09;4.70;;;2.38;;
20296;SDS011;10307;40.100;18.336;2023-02-07T00:33:55;6.35;;;2.45;;
20296;SDS011;10307;40.100;18.336;2023-02-07T00:36:25;5.03;;;2.42;;
20296;SDS011;10307;40.100;18.336;2023-02-07T00:38:55;6.00;;;1.95;;
20296;SDS011;10307;40.100;18.336;2023-02-07T00:41:22;7.00;;;2.42;;
20296;SDS011;10307;40.100;18.336;2023-02-07T00:43:48;5.30;;;2.35;;
20296;SDS011;10307;40.100;18.336;2023-02-07T00:46:15;6.88;;;2.25;;
20296;SDS011;10307;40.100;18.336;2023-02-07T00:48:42;6.82;;;2.33;;
20296;SDS011;10307;40.100;18.336;2023-02-07T00:51:09;5.82;;;2.75;;
20296;SDS011;10307;40.100;18.336;2023-02-07T00:53:38;5.93;;;1.90;;
20296;SDS011;10307;40.100;18.336;2023-02-07T00:56:05;4.55;;;2.20;;
20296;SDS011;10307;40.100;18.336;2023-02-07T00:58:33;7.50;;;2.60;;
20296;SDS011;10307;40.100;18.336;2023-02-07T01:01:00;7.05;;;2.88;;
20296;SDS011;10307;40.100;18.336;2023-02-07T01:03:26;4.20;;;2.42;;
20296;SDS011;10307;40.100;18.336;2023-02-07T01:05:53;7.10;;;2.35;;
20296;SDS011;10307;40.100;18.336;2023-02-07T01:08:19;6.75;;;2.38;;
20296;SDS011;10307;40.100;18.336;2023-02-07T01:10:45;3.92;;;2.30;;
20296;SDS011;10307;40.100;18.336;2023-02-07T01:13:12;6.03;;;3.00;;
20296;SDS011;10307;40.100;18.336;2023-02-07T01:15:40;6.00;;;2.90;;
20296;SDS011;10307;40.100;18.336;2023-02-07T01:18:08;8.00;;;3.53;;
20296;SDS011;10307;40.100;18.336;2023-02-07T01:20:35;7.68;;;3.40;;
20296;SDS011;10307;40.100;18.336;2023-02-07T01:23:03;11.80;;;3.60;;
20296;SDS011;10307;40.100;18.336;2023-02-07T01:25:30;11.25;;;3.45;;
20296;SDS011;10307;40.100;18.336;2023-02-07T01:27:56;7.82;;;3.10;;
20296;SDS011;10307;40.100;18.336;2023-02-07T01:30:23;6.03;;;2.80;;
20296;SDS011;10307;40.100;18.336;2023-02-07T01:32:50;6.32;;;2.42;;
20296;SDS011;10307;40.100;18.336;2023-02-07T01:35:16;6.28;;;2.53;;
20296;SDS011;10307;40.100;18.336;2023-02-07T01:37:43;6.15;;;2.72;;
20296;SDS011;10307;40.100;18.336;2023-02-07T01:40:09;6.38;;;3.28;;
20296;SDS011;10307;40.100;18.336;2023-02-07T01:42:36;6.10;;;2.08;;
20296;SDS011;10307;40.100;18.336;2023-02-07T01:45:49;5.70;;;2.30;;
20296;SDS011;10307;40.100;18.336;2023-02-07T01:48:04;5.20;;;1.90;;
20296;SDS011;10307;40.100;18.336;2023-02-07T01:50:45;6.60;;;2.65;;
20296;SDS011;10307;40.100;18.336;2023-02-07T01:53:14;5.68;;;2.83;;
20296;SDS011;10307;40.100;18.336;2023-02-07T01:55:43;6.13;;;2.80;;
20296;SDS011;10307;40.100;18.336;2023-02-07T01:58:12;5.68;;;2.58;;
20296;SDS011;10307;40.100;18.336;2023-02-07T02:00:42;5.18;;;2.47;;
20296;SDS011;10307;40.100;18.336;2023-02-07T02:03:10;5.15;;;2.33;;
20296;SDS011;10307;40.100;18.336;2023-02-07T02:05:36;5.88;;;2.33;;
20296;SDS011;10307;40.100;18.336;2023-02-07T02:08:04;5.30;;;2.72;;
20296;SDS011;10307;40.100;18.336;2023-02-07T02:10:46;7.60;;;2.65;;
20296;SDS011;10307;40.100;18.336;2023-02-07T02:21:57;5.57;;;2.30;;
20296;SDS011;10307;40.100;18.336;2023-02-07T02:24:42;7.80;;;2.78;;
20296;SDS011;10307;40.100;18.336;2023-02-07T02:33:25;11.55;;;3.08;;
20296;SDS011;10307;40.100;18.336;2023-02-07T02:36:18;3.83;;;2.00;;
20296;SDS011;10307;40.100;18.336;2023-02-07T02:39:33;5.22;;;2.40;;
20296;SDS011;10307;40.100;18.336;2023-02-07T02:45:13;7.35;;;3.03;;
20296;SDS011;10307;40.100;18.336;2023-02-07T02:47:44;5.15;;;2.25;;
20296;SDS011;10307;40.100;18.336;2023-02-07T02:50:17;5.13;;;2.03;;
20296;SDS011;10307;40.100;18.336;2023-02-07T02:52:48;5.50;;;2.20;;
20296;SDS011;10307;40.100;18.336;2023-02-07T02:55:16;8.15;;;2.90;;
20296;SDS011;10307;40.100;18.336;2023-02-07T03:06:44;5.45;;;2.63;;
20296;SDS011;10307;40.100;18.336;2023-02-07T03:09:32;5.75;;;2.42;;
20296;SDS011;10307;40.100;18.336;2023-02-07T03:15:01;4.93;;;2.53;;
20296;SDS011;10307;40.100;18.336;2023-02-07T03:17:38;6.18;;;2.30;;
20296;SDS011;10307;40.100;18.336;2023-02-07T03:20:19;5.88;;;2.58;;
20296;SDS011;10307;40.100;18.336;2023-02-07T03:22:51;5.72;;;2.67;;
20296;SDS011;10307;40.100;18.336;2023-02-07T03:25:21;5.90;;;2.40;;
20296;SDS011;10307;40.100;18.336;2023-02-07T03:27:50;6.03;;;1.85;;
20296;SDS011;10307;40.100;18.336;2023-02-07T03:30:19;5.72;;;2.05;;
20296;SDS011;10307;40.100;18.336;2023-02-07T03:32:49;7.65;;;2.22;;
20296;SDS011;10307;40.100;18.336;2023-02-07T03:37:53;8.32;;;2.40;;
20296;SDS011;10307;40.100;18.336;2023-02-07T03:40:25;6.93;;;2.30;;
20296;SDS011;10307;40.100;18.336;2023-02-07T03:43:05;7.68;;;3.47;;
20296;SDS011;10307;40.100;18.336;2023-02-07T03:45:39;10.10;;;4.15;;
20296;SDS011;10307;40.100;18.336;2023-02-07T03:48:06;7.43;;;2.95;;
20296;SDS011;10307;40.100;18.336;2023-02-07T03:50:32;8.30;;;3.35;;
20296;SDS011;10307;40.100;18.336;2023-02-07T03:52:59;8.73;;;3.38;;
20296;SDS011;10307;40.100;18.336;2023-02-07T03:55:25;8.23;;;3.50;;
20296;SDS011;10307;40.100;18.336;2023-02-07T03:57:52;7.15;;;2.92;;
20296;SDS011;10307;40.100;18.336;2023-02-07T04:00:18;9.10;;;3.58;;
20296;SDS011;10307;40.100;18.336;2023-02-07T04:02:45;6.10;;;2.70;;
20296;SDS011;10307;40.100;18.336;2023-02-07T04:05:11;9.20;;;2.63;;
20296;SDS011;10307;40.100;18.336;2023-02-07T04:07:37;8.23;;;3.05;;
20296;SDS011;10307;40.100;18.336;2023-02-07T04:10:04;8.68;;;3.72;;
20296;SDS011;10307;40.100;18.336;2023-02-07T04:12:31;7.80;;;3.10;;
20296;SDS011;10307;40.100;18.336;2023-02-07T04:14:58;6.65;;;3.05;;
20296;SDS011;10307;40.100;18.336;2023-02-07T04:17:24;9.07;;;4.68;;
20296;SDS011;10307;40.100;18.336;2023-02-07T04:19:51;10.25;;;3.47;;
20296;SDS011;10307;40.100;18.336;2023-02-07T04:22:17;8.18;;;3.97;;
20296;SDS011;10307;40.100;18.336;2023-02-07T04:24:44;8.13;;;4.13;;
20296;SDS011;10307;40.100;18.336;2023-02-07T04:27:10;9.20;;;3.63;;
20296;SDS011;10307;40.100;18.336;2023-02-07T04:29:36;10.40;;;3.53;;
20296;SDS011;10307;40.100;18.336;2023-02-07T04:32:02;7.78;;;3.22;;
20296;SDS011;10307;40.100;18.336;2023-02-07T04:34:29;10.80;;;3.63;;
20296;SDS011;10307;40.100;18.336;2023-02-07T04:36:55;9.07;;;3.38;;
20296;SDS011;10307;40.100;18.336;2023-02-07T04:39:22;11.63;;;3.55;;
20296;SDS011;10307;40.100;18.336;2023-02-07T04:41:48;8.60;;;2.92;;
20296;SDS011;10307;40.100;18.336;2023-02-07T04:44:14;8.02;;;3.53;;
20296;SDS011;10307;40.100;18.336;2023-02-07T04:46:40;5.72;;;2.42;;
20296;SDS011;10307;40.100;18.336;2023-02-07T04:49:07;7.82;;;2.90;;
20296;SDS011;10307;40.100;18.336;2023-02-07T04:51:33;6.53;;;3.13;;
20296;SDS011;10307;40.100;18.336;2023-02-07T04:53:59;6.72;;;2.80;;
20296;SDS011;10307;40.100;18.336;2023-02-07T04:56:25;7.35;;;3.17;;
20296;SDS011;10307;40.100;18.336;2023-02-07T04:58:52;5.35;;;2.70;;
20296;SDS011;10307;40.100;18.336;2023-02-07T05:01:18;6.35;;;2.10;;
20296;SDS011;10307;40.100;18.336;2023-02-07T05:03:44;4.57;;;2.05;;
20296;SDS011;10307;40.100;18.336;2023-02-07T05:06:10;5.25;;;2.60;;
20296;SDS011;10307;40.100;18.336;2023-02-07T05:08:37;6.43;;;2.33;;
20296;SDS011;10307;40.100;18.336;2023-02-07T05:11:04;6.68;;;2.35;;
20296;SDS011;10307;40.100;18.336;2023-02-07T05:13:31;4.63;;;1.63;;
20296;SDS011;10307;40.100;18.336;2023-02-07T05:16:00;8.73;;;2.75;;
20296;SDS011;10307;40.100;18.336;2023-02-07T05:18:28;7.65;;;2.70;;
20296;SDS011;10307;40.100;18.336;2023-02-07T05:20:54;8.80;;;3.00;;
20296;SDS011;10307;40.100;18.336;2023-02-07T05:23:22;6.28;;;2.72;;
20296;SDS011;10307;40.100;18.336;2023-02-07T05:25:48;6.47;;;2.35;;
20296;SDS011;10307;40.100;18.336;2023-02-07T05:28:14;6.57;;;2.90;;
20296;SDS011;10307;40.100;18.336;2023-02-07T05:30:41;6.53;;;2.25;;
20296;SDS011;10307;40.100;18.336;2023-02-07T05:33:08;5.93;;;2.10;;
20296;SDS011;10307;40.100;18.336;2023-02-07T05:35:44;6.35;;;2.40;;
20296;SDS011;10307;40.100;18.336;2023-02-07T05:38:11;5.97;;;2.75;;
20296;SDS011;10307;40.100;18.336;2023-02-07T05:40:40;4.40;;;2.08;;
20296;SDS011;10307;40.100;18.336;2023-02-07T05:43:08;7.13;;;2.45;;
20296;SDS011;10307;40.100;18.336;2023-02-07T05:45:35;4.93;;;2.03;;
20296;SDS011;10307;40.100;18.336;2023-02-07T05:48:02;9.07;;;3.40;;
20296;SDS011;10307;40.100;18.336;2023-02-07T05:50:28;5.55;;;2.88;;
20296;SDS011;10307;40.100;18.336;2023-02-07T05:53:05;5.70;;;2.30;;
20296;SDS011;10307;40.100;18.336;2023-02-07T05:55:32;5.43;;;2.40;;
20296;SDS011;10307;40.100;18.336;2023-02-07T05:57:59;6.60;;;2.17;;
20296;SDS011;10307;40.100;18.336;2023-02-07T06:00:25;7.00;;;2.33;;
20296;SDS011;10307;40.100;18.336;2023-02-07T06:02:51;6.93;;;2.67;;
20296;SDS011;10307;40.100;18.336;2023-02-07T06:05:18;6.25;;;2.15;;
20296;SDS011;10307;40.100;18.336;2023-02-07T06:07:44;5.80;;;2.42;;
20296;SDS011;10307;40.100;18.336;2023-02-07T06:10:11;7.95;;;2.60;;
20296;SDS011;10307;40.100;18.336;2023-02-07T06:12:38;7.40;;;2.25;;
20296;SDS011;10307;40.100;18.336;2023-02-07T06:15:05;7.70;;;2.72;;
20296;SDS011;10307;40.100;18.336;2023-02-07T06:17:31;4.97;;;2.40;;
20296;SDS011;10307;40.100;18.336;2023-02-07T06:19:57;7.45;;;2.75;;
20296;SDS011;10307;40.100;18.336;2023-02-07T06:22:24;4.32;;;2.28;;
20296;SDS011;10307;40.100;18.336;2023-02-07T06:24:50;9.90;;;2.63;;
20296;SDS011;10307;40.100;18.336;2023-02-07T06:27:17;6.85;;;2.40;;
20296;SDS011;10307;40.100;18.336;2023-02-07T06:29:43;6.90;;;2.35;;
20296;SDS011;10307;40.100;18.336;2023-02-07T06:32:09;6.78;;;2.55;;
20296;SDS011;10307;40.100;18.336;2023-02-07T06:34:36;6.68;;;2.78;;
20296;SDS011;10307;40.100;18.336;2023-02-07T06:37:02;5.43;;;2.13;;
20296;SDS011;10307;40.100;18.336;2023-02-07T06:39:28;8.55;;;2.95;;
20296;SDS011;10307;40.100;18.336;2023-02-07T06:41:55;7.03;;;2.55;;
20296;SDS011;10307;40.100;18.336;2023-02-07T06:44:21;6.32;;;2.60;;
20296;SDS011;10307;40.100;18.336;2023-02-07T06:46:47;6.95;;;2.78;;
20296;SDS011;10307;40.100;18.336;2023-02-07T06:49:13;8.15;;;3.15;;
20296;SDS011;10307;40.100;18.336;2023-02-07T06:51:40;6.40;;;2.03;;
20296;SDS011;10307;40.100;18.336;2023-02-07T06:54:06;9.02;;;2.72;;
20296;SDS011;10307;40.100;18.336;2023-02-07T06:56:35;6.97;;;2.70;;
20296;SDS011;10307;40.100;18.336;2023-02-07T06:59:01;9.27;;;2.80;;
20296;SDS011;10307;40.100;18.336;2023-02-07T07:01:27;5.78;;;2.92;;
20296;SDS011;10307;40.100;18.336;2023-02-07T07:03:54;4.90;;;2.67;;
20296;SDS011;10307;40.100;18.336;2023-02-07T07:06:20;4.18;;;2.13;;
20296;SDS011;10307;40.100;18.336;2023-02-07T07:08:47;9.48;;;2.67;;
20296;SDS011;10307;40.100;18.336;2023-02-07T07:11:16;5.82;;;2.05;;
20296;SDS011;10307;40.100;18.336;2023-02-07T07:13:42;5.72;;;2.72;;
20296;SDS011;10307;40.100;18.336;2023-02-07T07:16:09;6.78;;;2.47;;
20296;SDS011;10307;40.100;18.336;2023-02-07T07:18:35;5.40;;;2.30;;
20296;SDS011;10307;40.100;18.336;2023-02-07T07:21:02;5.10;;;1.85;;
20296;SDS011;10307;40.100;18.336;2023-02-07T07:23:29;7.07;;;2.30;;
20296;SDS011;10307;40.100;18.336;2023-02-07T07:25:55;4.50;;;2.00;;
20296;SDS011;10307;40.100;18.336;2023-02-07T07:28:22;5.65;;;1.80;;
20296;SDS011;10307;40.100;18.336;2023-02-07T07:30:48;5.72;;;2.22;;
20296;SDS011;10307;40.100;18.336;2023-02-07T07:33:14;6.57;;;2.47;;
20296;SDS011;10307;40.100;18.336;2023-02-07T07:35:41;11.70;;;2.35;;
20296;SDS011;10307;40.100;18.336;2023-02-07T07:38:07;6.32;;;2.00;;
20296;SDS011;10307;40.100;18.336;2023-02-07T07:40:33;5.18;;;1.80;;
20296;SDS011;10307;40.100;18.336;2023-02-07T07:43:00;9.65;;;3.10;;
20296;SDS011;10307;40.100;18.336;2023-02-07T07:45:39;5.07;;;2.10;;
20296;SDS011;10307;40.100;18.336;2023-02-07T07:48:05;4.57;;;1.98;;
20296;SDS011;10307;40.100;18.336;2023-02-07T07:50:31;5.75;;;1.80;;
20296;SDS011;10307;40.100;18.336;2023-02-07T07:52:58;7.45;;;3.15;;
20296;SDS011;10307;40.100;18.336;2023-02-07T07:55:24;3.25;;;1.65;;
20296;SDS011;10307;40.100;18.336;2023-02-07T07:57:51;7.85;;;2.42;;
20296;SDS011;10307;40.100;18.336;2023-02-07T08:00:18;7.72;;;2.78;;
20296;SDS011;10307;40.100;18.336;2023-02-07T08:02:44;7.70;;;2.83;;
20296;SDS011;10307;40.100;18.336;2023-02-07T08:05:11;4.38;;;2.25;;
20296;SDS011;10307;40.100;18.336;2023-02-07T08:07:37;6.35;;;2.80;;
20296;SDS011;10307;40.100;18.336;2023-02-07T08:10:03;9.15;;;2.75;;
20296;SDS011;10307;40.100;18.336;2023-02-07T08:12:30;5.95;;;2.58;;
20296;SDS011;10307;40.100;18.336;2023-02-07T08:14:56;6.70;;;2.55;;
20296;SDS011;10307;40.100;18.336;2023-02-07T08:17:22;4.90;;;2.10;;
20296;SDS011;10307;40.100;18.336;2023-02-07T08:19:48;5.57;;;1.90;;
20296;SDS011;10307;40.100;18.336;2023-02-07T08:22:15;4.95;;;2.13;;
20296;SDS011;10307;40.100;18.336;2023-02-07T08:24:41;7.75;;;2.70;;
20296;SDS011;10307;40.100;18.336;2023-02-07T08:27:07;7.53;;;3.20;;
20296;SDS011;10307;40.100;18.336;2023-02-07T08:29:34;5.40;;;2.47;;
20296;SDS011;10307;40.100;18.336;2023-02-07T08:32:00;6.55;;;2.40;;
20296;SDS011;10307;40.100;18.336;2023-02-07T08:34:26;4.80;;;2.67;;
20296;SDS011;10307;40.100;18.336;2023-02-07T08:36:53;6.38;;;2.17;;
20296;SDS011;10307;40.100;18.336;2023-02-07T08:39:19;8.05;;;3.58;;
20296;SDS011;10307;40.100;18.336;2023-02-07T08:41:46;5.45;;;2.00;;
20296;SDS011;10307;40.100;18.336;2023-02-07T08:44:12;3.72;;;1.50;;
20296;SDS011;10307;40.100;18.336;2023-02-07T08:46:39;5.97;;;2.60;;
20296;SDS011;10307;40.100;18.336;2023-02-07T08:49:05;5.53;;;2.38;;
20296;SDS011;10307;40.100;18.336;2023-02-07T08:51:31;6.38;;;2.72;;
20296;SDS011;10307;40.100;18.336;2023-02-07T08:53:57;4.18;;;1.90;;
20296;SDS011;10307;40.100;18.336;2023-02-07T08:56:23;9.77;;;3.10;;
20296;SDS011;10307;40.100;18.336;2023-02-07T08:58:50;5.35;;;2.20;;
20296;SDS011;10307;40.100;18.336;2023-02-07T09:01:16;5.00;;;2.05;;
20296;SDS011;10307;40.100;18.336;2023-02-07T09:03:42;7.32;;;2.20;;
20296;SDS011;10307;40.100;18.336;2023-02-07T09:06:08;7.10;;;2.72;;
20296;SDS011;10307;40.100;18.336;2023-02-07T09:08:35;5.32;;;2.67;;
20296;SDS011;10307;40.100;18.336;2023-02-07T09:11:01;5.55;;;2.70;;
20296;SDS011;10307;40.100;18.336;2023-02-07T09:13:27;5.70;;;2.20;;
20296;SDS011;10307;40.100;18.336;2023-02-07T09:15:54;7.10;;;2.42;;
20296;SDS011;10307;40.100;18.336;2023-02-07T09:18:23;10.00;;;2.70;;
20296;SDS011;10307;40.100;18.336;2023-02-07T09:20:50;6.40;;;2.13;;
20296;SDS011;10307;40.100;18.336;2023-02-07T09:23:17;3.08;;;1.58;;
20296;SDS011;10307;40.100;18.336;2023-02-07T09:25:47;5.68;;;2.83;;
20296;SDS011;10307;40.100;18.336;2023-02-07T09:28:17;7.35;;;2.60;;
20296;SDS011;10307;40.100;18.336;2023-02-07T09:30:45;7.97;;;2.75;;
20296;SDS011;10307;40.100;18.336;2023-02-07T09:33:12;6.32;;;2.65;;
20296;SDS011;10307;40.100;18.336;2023-02-07T09:35:40;8.70;;;2.78;;
20296;SDS011;10307;40.100;18.336;2023-02-07T09:38:10;6.93;;;2.90;;
20296;SDS011;10307;40.100;18.336;2023-02-07T09:40:39;7.50;;;3.15;;
20296;SDS011;10307;40.100;18.336;2023-02-07T09:45:54;6.22;;;2.30;;
20296;SDS011;10307;40.100;18.336;2023-02-07T09:48:29;7.40;;;2.90;;
20296;SDS011;10307;40.100;18.336;2023-02-07T09:51:16;5.40;;;2.80;;
20296;SDS011;10307;40.100;18.336;2023-02-07T09:53:50;5.80;;;2.40;;
20296;SDS011;10307;40.100;18.336;2023-02-07T09:56:23;7.60;;;3.13;;
20296;SDS011;10307;40.100;18.336;2023-02-07T10:01:23;7.50;;;2.60;;
20296;SDS011;10307;40.100;18.336;2023-02-07T10:06:48;8.15;;;2.80;;
20296;SDS011;10307;40.100;18.336;2023-02-07T10:09:17;4.68;;;1.77;;
20296;SDS011;10307;40.100;18.336;2023-02-07T10:11:50;6.35;;;3.00;;
20296;SDS011;10307;40.100;18.336;2023-02-07T10:14:24;5.65;;;2.38;;
20296;SDS011;10307;40.100;18.336;2023-02-07T10:17:08;6.50;;;2.50;;
20296;SDS011;10307;40.100;18.336;2023-02-07T10:25:39;8.18;;;2.92;;
20296;SDS011;10307;40.100;18.336;2023-02-07T10:30:40;5.65;;;2.47;;
20296;SDS011;10307;40.100;18.336;2023-02-07T10:33:19;7.18;;;2.75;;
20296;SDS011;10307;40.100;18.336;2023-02-07T10:35:48;8.40;;;3.03;;
20296;SDS011;10307;40.100;18.336;2023-02-07T10:40:54;6.63;;;2.53;;
20296;SDS011;10307;40.100;18.336;2023-02-07T10:43:41;4.90;;;2.72;;
20296;SDS011;10307;40.100;18.336;2023-02-07T10:46:12;7.90;;;3.30;;
20296;SDS011;10307;40.100;18.336;2023-02-07T10:48:42;6.63;;;2.53;;
20296;SDS011;10307;40.100;18.336;2023-02-07T10:54:07;6.22;;;3.25;;
20296;SDS011;10307;40.100;18.336;2023-02-07T10:56:44;5.13;;;2.53;;
20296;SDS011;10307;40.100;18.336;2023-02-07T11:02:24;7.25;;;3.50;;
20296;SDS011;10307;40.100;18.336;2023-02-07T11:05:03;13.23;;;6.18;;
20296;SDS011;10307;40.100;18.336;2023-02-07T11:12:56;7.63;;;3.67;;
20296;SDS011;10307;40.100;18.336;2023-02-07T11:15:27;9.00;;;4.03;;
20296;SDS011;10307;40.100;18.336;2023-02-07T11:18:00;8.70;;;3.22;;
20296;SDS011;10307;40.100;18.336;2023-02-07T11:22:56;6.93;;;2.88;;
20296;SDS011;10307;40.100;18.336;2023-02-07T11:25:30;6.28;;;2.78;;
20296;SDS011;10307;40.100;18.336;2023-02-07T11:28:01;10.52;;;5.47;;
20296;SDS011;10307;40.100;18.336;2023-02-07T11:30:28;6.90;;;2.85;;
20296;SDS011;10307;40.100;18.336;2023-02-07T11:32:59;5.40;;;2.83;;
20296;SDS011;10307;40.100;18.336;2023-02-07T11:35:29;5.15;;;2.40;;
20296;SDS011;10307;40.100;18.336;2023-02-07T11:38:02;5.07;;;2.10;;
20296;SDS011;10307;40.100;18.336;2023-02-07T11:45:34;7.68;;;2.88;;
20296;SDS011;10307;40.100;18.336;2023-02-07T11:48:03;5.85;;;2.55;;
20296;SDS011;10307;40.100;18.336;2023-02-07T11:50:37;4.88;;;2.33;;
20296;SDS011;10307;40.100;18.336;2023-02-07T11:53:06;4.18;;;2.33;;
20296;SDS011;10307;40.100;18.336;2023-02-07T11:55:44;7.03;;;3.03;;
20296;SDS011;10307;40.100;18.336;2023-02-07T11:58:22;7.20;;;2.88;;
20296;SDS011;10307;40.100;18.336;2023-02-07T12:00:50;8.82;;;3.55;;
20296;SDS011;10307;40.100;18.336;2023-02-07T12:05:51;13.10;;;4.90;;
20296;SDS011;10307;40.100;18.336;2023-02-07T12:08:22;6.23;;;2.70;;
20296;SDS011;10307;40.100;18.336;2023-02-07T12:10:53;6.57;;;2.95;;
20296;SDS011;10307;40.100;18.336;2023-02-07T12:16:40;6.15;;;2.72;;
20296;SDS011;10307;40.100;18.336;2023-02-07T12:19:16;9.23;;;4.53;;
20296;SDS011;10307;40.100;18.336;2023-02-07T12:27:19;8.27;;;3.97;;
20296;SDS011;10307;40.100;18.336;2023-02-07T12:29:56;7.65;;;3.78;;
20296;SDS011;10307;40.100;18.336;2023-02-07T12:32:49;6.50;;;3.05;;
20296;SDS011;10307;40.100;18.336;2023-02-07T12:35:42;6.55;;;3.10;;
20296;SDS011;10307;40.100;18.336;2023-02-07T12:38:58;5.43;;;3.08;;
20296;SDS011;10307;40.100;18.336;2023-02-07T12:41:28;5.90;;;2.75;;
20296;SDS011;10307;40.100;18.336;2023-02-07T12:44:18;7.05;;;3.08;;
20296;SDS011;10307;40.100;18.336;2023-02-07T12:53:14;8.48;;;3.15;;
20296;SDS011;10307;40.100;18.336;2023-02-07T12:56:01;7.47;;;3.00;;
20296;SDS011;10307;40.100;18.336;2023-02-07T12:58:41;11.45;;;3.83;;
20296;SDS011;10307;40.100;18.336;2023-02-07T13:15:46;10.82;;;3.88;;
20296;SDS011;10307;40.100;18.336;2023-02-07T13:21:26;9.52;;;4.55;;
20296;SDS011;10307;40.100;18.336;2023-02-07T13:24:06;6.43;;;2.60;;
20296;SDS011;10307;40.100;18.336;2023-02-07T13:26:38;9.20;;;3.17;;
20296;SDS011;10307;40.100;18.336;2023-02-07T13:29:13;6.28;;;3.28;;
20296;SDS011;10307;40.100;18.336;2023-02-07T13:31:51;8.82;;;2.65;;
20296;SDS011;10307;40.100;18.336;2023-02-07T13:34:24;9.63;;;2.70;;
20296;SDS011;10307;40.100;18.336;2023-02-07T13:36:53;5.53;;;2.50;;
20296;SDS011;10307;40.100;18.336;2023-02-07T13:47:30;8.43;;;3.05;;
20296;SDS011;10307;40.100;18.336;2023-02-07T13:55:28;9.65;;;4.32;;
20296;SDS011;10307;40.100;18.336;2023-02-07T13:58:02;11.77;;;4.07;;
20296;SDS011;10307;40.100;18.336;2023-02-07T14:12:06;8.85;;;5.60;;
20296;SDS011;10307;40.100;18.336;2023-02-07T14:14:33;7.95;;;4.30;;
20296;SDS011;10307;40.100;18.336;2023-02-07T14:17:03;7.90;;;4.10;;
20296;SDS011;10307;40.100;18.336;2023-02-07T14:22:16;6.65;;;2.15;;
20296;SDS011;10307;40.100;18.336;2023-02-07T14:27:34;9.88;;;3.88;;
20296;SDS011;10307;40.100;18.336;2023-02-07T14:33:09;9.25;;;4.25;;
20296;SDS011;10307;40.100;18.336;2023-02-07T14:41:28;7.25;;;3.22;;
20296;SDS011;10307;40.100;18.336;2023-02-07T14:43:57;7.78;;;3.33;;
20296;SDS011;10307;40.100;18.336;2023-02-07T14:51:47;10.05;;;4.88;;
20296;SDS011;10307;40.100;18.336;2023-02-07T14:59:53;6.57;;;3.33;;
20296;SDS011;10307;40.100;18.336;2023-02-07T15:02:41;7.28;;;3.60;;
20296;SDS011;10307;40.100;18.336;2023-02-07T15:05:23;8.50;;;4.15;;
20296;SDS011;10307;40.100;18.336;2023-02-07T15:10:31;8.70;;;4.70;;
20296;SDS011;10307;40.100;18.336;2023-02-07T15:13:04;13.68;;;6.57;;
20296;SDS011;10307;40.100;18.336;2023-02-07T15:18:12;9.38;;;4.20;;
20296;SDS011;10307;40.100;18.336;2023-02-07T15:20:43;12.63;;;5.72;;
20296;SDS011;10307;40.100;18.336;2023-02-07T15:23:20;11.18;;;5.38;;
20296;SDS011;10307;40.100;18.336;2023-02-07T15:25:48;9.15;;;4.60;;
20296;SDS011;10307;40.100;18.336;2023-02-07T15:33:49;9.48;;;4.55;;
20296;SDS011;10307;40.100;18.336;2023-02-07T15:36:25;13.68;;;6.40;;
20296;SDS011;10307;40.100;18.336;2023-02-07T15:38:58;12.02;;;5.47;;
20296;SDS011;10307;40.100;18.336;2023-02-07T15:41:28;15.07;;;6.45;;
20296;SDS011;10307;40.100;18.336;2023-02-07T15:44:01;11.02;;;5.38;;
20296;SDS011;10307;40.100;18.336;2023-02-07T15:46:43;11.43;;;6.03;;
20296;SDS011;10307;40.100;18.336;2023-02-07T15:52:12;16.23;;;8.18;;
20296;SDS011;10307;40.100;18.336;2023-02-07T15:54:52;11.30;;;5.43;;
20296;SDS011;10307;40.100;18.336;2023-02-07T15:57:25;14.05;;;6.25;;
20296;SDS011;10307;40.100;18.336;2023-02-07T15:59:55;15.00;;;7.80;;
20296;SDS011;10307;40.100;18.336;2023-02-07T16:02:31;11.10;;;5.30;;
20296;SDS011;10307;40.100;18.336;2023-02-07T16:05:07;12.73;;;5.28;;
20296;SDS011;10307;40.100;18.336;2023-02-07T16:07:43;17.23;;;7.28;;
20296;SDS011;10307;40.100;18.336;2023-02-07T16:10:17;15.75;;;7.45;;
20296;SDS011;10307;40.100;18.336;2023-02-07T16:12:50;18.33;;;9.57;;
20296;SDS011;10307;40.100;18.336;2023-02-07T16:15:23;20.13;;;9.70;;
20296;SDS011;10307;40.100;18.336;2023-02-07T16:17:57;15.85;;;9.18;;
20296;SDS011;10307;40.100;18.336;2023-02-07T16:20:25;23.15;;;10.98;;
20296;SDS011;10307;40.100;18.336;2023-02-07T16:22:57;20.40;;;11.30;;
20296;SDS011;10307;40.100;18.336;2023-02-07T16:25:27;17.55;;;9.35;;
20296;SDS011;10307;40.100;18.336;2023-02-07T16:27:56;18.05;;;10.77;;
20296;SDS011;10307;40.100;18.336;2023-02-07T16:30:24;18.67;;;10.23;;
20296;SDS011;10307;40.100;18.336;2023-02-07T16:32:56;26.17;;;11.75;;
20296;SDS011;10307;40.100;18.336;2023-02-07T16:35:24;31.45;;;15.57;;
20296;SDS011;10307;40.100;18.336;2023-02-07T16:37:52;29.30;;;15.23;;
20296;SDS011;10307;40.100;18.336;2023-02-07T16:40:19;28.60;;;15.85;;
20296;SDS011;10307;40.100;18.336;2023-02-07T16:42:54;30.55;;;14.73;;
20296;SDS011;10307;40.100;18.336;2023-02-07T16:45:26;28.02;;;14.35;;
20296;SDS011;10307;40.100;18.336;2023-02-07T16:47:57;24.83;;;13.60;;
20296;SDS011;10307;40.100;18.336;2023-02-07T16:50:25;21.52;;;12.15;;
20296;SDS011;10307;40.100;18.336;2023-02-07T16:52:53;18.92;;;10.20;;
20296;SDS011;10307;40.100;18.336;2023-02-07T16:55:24;23.48;;;12.02;;
20296;SDS011;10307;40.100;18.336;2023-02-07T16:57:52;13.95;;;8.07;;
20296;SDS011;10307;40.100;18.336;2023-02-07T17:00:20;23.33;;;12.30;;
20296;SDS011;10307;40.100;18.336;2023-02-07T17:02:48;48.55;;;23.00;;
20296;SDS011;10307;40.100;18.336;2023-02-07T17:05:16;50.97;;;22.27;;
20296;SDS011;10307;40.100;18.336;2023-02-07T17:07:44;40.33;;;19.48;;
20296;SDS011;10307;40.100;18.336;2023-02-07T17:10:18;49.45;;;21.38;;
20296;SDS011;10307;40.100;18.336;2023-02-07T17:12:56;31.58;;;17.20;;
20296;SDS011;10307;40.100;18.336;2023-02-07T17:15:23;30.33;;;16.15;;
20296;SDS011;10307;40.100;18.336;2023-02-07T17:17:49;33.03;;;16.27;;
20296;SDS011;10307;40.100;18.336;2023-02-07T17:20:25;30.02;;;15.00;;
20296;SDS011;10307;40.100;18.336;2023-02-07T17:22:55;26.55;;;16.48;;
20296;SDS011;10307;40.100;18.336;2023-02-07T17:25:23;25.25;;;15.13;;
20296;SDS011;10307;40.100;18.336;2023-02-07T17:27:53;28.65;;;16.70;;
20296;SDS011;10307;40.100;18.336;2023-02-07T17:30:20;22.13;;;13.25;;
20296;SDS011;10307;40.100;18.336;2023-02-07T17:32:48;24.80;;;13.85;;
20296;SDS011;10307;40.100;18.336;2023-02-07T17:35:15;25.95;;;14.00;;
20296;SDS011;10307;40.100;18.336;2023-02-07T17:37:41;30.10;;;15.50;;